sensor_id;sensor_type;location;lat;lon;timestamp;temperature;humidity
22813;DHT22;11573;51.334;3.244;2024-01-06T00:00:18;7.20;99.90
22813;DHT22;11573;51.334;3.244;2024-01-06T00:02:45;7.20;99.90
22813;DHT22;11573;51.334;3.244;2024-01-06T00:05:12;7.20;99.90
22813;DHT22;11573;51.334;3.244;2024-01-06T00:07:39;7.20;99.90
22813;DHT22;11573;51.334;3.244;2024-01-06T00:10:06;7.30;99.90
22813;DHT22;11573;51.334;3.244;2024-01-06T00:12:33;7.20;99.90
22813;DHT22;11573;51.334;3.244;2024-01-06T00:15:01;7.10;99.90
22813;DHT22;11573;51.334;3.244;2024-01-06T00:17:28;7.20;99.90
22813;DHT22;11573;51.334;3.244;2024-01-06T00:19:55;7.20;99.90
22813;DHT22;11573;51.334;3.244;2024-01-06T00:22:22;7.20;99.90
22813;DHT22;11573;51.334;3.244;2024-01-06T00:24:49;7.20;99.90
22813;DHT22;11573;51.334;3.244;2024-01-06T00:27:16;7.20;99.90
22813;DHT22;11573;51.334;3.244;2024-01-06T00:29:43;7.20;99.90
22813;DHT22;11573;51.334;3.244;2024-01-06T00:32:10;7.20;99.90
22813;DHT22;11573;51.334;3.244;2024-01-06T00:34:37;7.20;99.90
22813;DHT22;11573;51.334;3.244;2024-01-06T00:37:04;7.20;99.90
22813;DHT22;11573;51.334;3.244;2024-01-06T00:39:31;7.20;99.90
22813;DHT22;11573;51.334;3.244;2024-01-06T00:41:58;7.20;99.90
22813;DHT22;11573;51.334;3.244;2024-01-06T00:44:25;7.20;99.90
22813;DHT22;11573;51.334;3.244;2024-01-06T00:46:52;7.20;99.90
22813;DHT22;11573;51.334;3.244;2024-01-06T00:49:19;7.20;99.90
22813;DHT22;11573;51.334;3.244;2024-01-06T00:51:46;7.20;99.90
22813;DHT22;11573;51.334;3.244;2024-01-06T00:54:13;7.20;99.90
22813;DHT22;11573;51.334;3.244;2024-01-06T00:56:40;7.10;99.90
22813;DHT22;11573;51.334;3.244;2024-01-06T00:59:09;7.20;99.90
22813;DHT22;11573;51.334;3.244;2024-01-06T01:01:36;7.30;99.90
22813;DHT22;11573;51.334;3.244;2024-01-06T01:04:03;7.20;99.90
22813;DHT22;11573;51.334;3.244;2024-01-06T01:06:30;7.10;99.90
22813;DHT22;11573;51.334;3.244;2024-01-06T01:08:57;7.10;99.90
22813;DHT22;11573;51.334;3.244;2024-01-06T01:11:25;7.10;99.90
22813;DHT22;11573;51.334;3.244;2024-01-06T01:13:51;7.10;99.90
22813;DHT22;11573;51.334;3.244;2024-01-06T01:16:19;7.10;99.90
22813;DHT22;11573;51.334;3.244;2024-01-06T01:18:46;7.20;99.90
22813;DHT22;11573;51.334;3.244;2024-01-06T01:21:14;7.20;99.90
22813;DHT22;11573;51.334;3.244;2024-01-06T01:23:42;7.20;99.90
22813;DHT22;11573;51.334;3.244;2024-01-06T01:26:10;7.20;99.90
22813;DHT22;11573;51.334;3.244;2024-01-06T01:28:36;7.30;99.90
22813;DHT22;11573;51.334;3.244;2024-01-06T01:31:03;7.10;99.90
22813;DHT22;11573;51.334;3.244;2024-01-06T01:33:31;7.10;99.90
22813;DHT22;11573;51.334;3.244;2024-01-06T01:35:58;7.10;99.90
22813;DHT22;11573;51.334;3.244;2024-01-06T01:38:28;7.10;99.90
22813;DHT22;11573;51.334;3.244;2024-01-06T01:40:55;7.00;99.90
22813;DHT22;11573;51.334;3.244;2024-01-06T01:43:22;7.10;99.90
22813;DHT22;11573;51.334;3.244;2024-01-06T01:45:53;7.10;99.90
22813;DHT22;11573;51.334;3.244;2024-01-06T01:48:21;7.10;99.90
22813;DHT22;11573;51.334;3.244;2024-01-06T01:50:50;7.20;99.90
22813;DHT22;11573;51.334;3.244;2024-01-06T01:53:19;7.10;99.90
22813;DHT22;11573;51.334;3.244;2024-01-06T01:55:47;7.20;99.90
22813;DHT22;11573;51.334;3.244;2024-01-06T01:58:15;7.20;99.90
22813;DHT22;11573;51.334;3.244;2024-01-06T02:00:42;7.10;99.90
22813;DHT22;11573;51.334;3.244;2024-01-06T02:03:11;7.20;99.90
22813;DHT22;11573;51.334;3.244;2024-01-06T02:05:39;7.20;99.90
22813;DHT22;11573;51.334;3.244;2024-01-06T02:08:06;7.20;99.90
22813;DHT22;11573;51.334;3.244;2024-01-06T02:10:34;7.20;99.90
22813;DHT22;11573;51.334;3.244;2024-01-06T02:13:11;7.30;99.90
22813;DHT22;11573;51.334;3.244;2024-01-06T02:15:38;7.30;99.90
22813;DHT22;11573;51.334;3.244;2024-01-06T02:18:06;7.30;99.90
22813;DHT22;11573;51.334;3.244;2024-01-06T02:20:33;7.30;99.90
22813;DHT22;11573;51.334;3.244;2024-01-06T02:23:01;7.20;99.90
22813;DHT22;11573;51.334;3.244;2024-01-06T02:25:28;7.20;99.90
22813;DHT22;11573;51.334;3.244;2024-01-06T02:27:56;7.20;99.90
22813;DHT22;11573;51.334;3.244;2024-01-06T02:30:23;7.20;99.90
22813;DHT22;11573;51.334;3.244;2024-01-06T02:32:51;7.10;99.90
22813;DHT22;11573;51.334;3.244;2024-01-06T02:35:18;7.00;99.90
22813;DHT22;11573;51.334;3.244;2024-01-06T02:37:45;6.90;99.90
22813;DHT22;11573;51.334;3.244;2024-01-06T02:40:13;6.90;99.90
22813;DHT22;11573;51.334;3.244;2024-01-06T02:42:40;7.00;99.90
22813;DHT22;11573;51.334;3.244;2024-01-06T02:45:08;7.00;99.90
22813;DHT22;11573;51.334;3.244;2024-01-06T02:47:38;7.00;99.90
22813;DHT22;11573;51.334;3.244;2024-01-06T02:50:05;6.90;99.90
22813;DHT22;11573;51.334;3.244;2024-01-06T02:52:33;7.00;99.90
22813;DHT22;11573;51.334;3.244;2024-01-06T02:55:00;7.10;99.90
22813;DHT22;11573;51.334;3.244;2024-01-06T02:57:31;7.10;99.90
22813;DHT22;11573;51.334;3.244;2024-01-06T02:59:58;7.20;99.90
22813;DHT22;11573;51.334;3.244;2024-01-06T03:02:25;7.20;99.90
22813;DHT22;11573;51.334;3.244;2024-01-06T03:04:52;7.10;99.90
22813;DHT22;11573;51.334;3.244;2024-01-06T03:07:19;7.20;99.90
22813;DHT22;11573;51.334;3.244;2024-01-06T03:09:46;7.20;99.90
22813;DHT22;11573;51.334;3.244;2024-01-06T03:12:13;7.20;99.90
22813;DHT22;11573;51.334;3.244;2024-01-06T03:14:40;7.10;99.90
22813;DHT22;11573;51.334;3.244;2024-01-06T03:17:07;7.10;99.90
22813;DHT22;11573;51.334;3.244;2024-01-06T03:19:37;7.00;99.90
22813;DHT22;11573;51.334;3.244;2024-01-06T03:22:04;7.00;99.90
22813;DHT22;11573;51.334;3.244;2024-01-06T03:24:31;7.00;99.90
22813;DHT22;11573;51.334;3.244;2024-01-06T03:26:58;6.90;99.90
22813;DHT22;11573;51.334;3.244;2024-01-06T03:29:25;7.00;99.90
22813;DHT22;11573;51.334;3.244;2024-01-06T03:31:52;6.90;99.90
22813;DHT22;11573;51.334;3.244;2024-01-06T03:34:19;6.80;99.90
22813;DHT22;11573;51.334;3.244;2024-01-06T03:36:46;6.70;99.90
22813;DHT22;11573;51.334;3.244;2024-01-06T03:39:13;6.80;99.90
22813;DHT22;11573;51.334;3.244;2024-01-06T03:41:40;6.80;99.90
22813;DHT22;11573;51.334;3.244;2024-01-06T03:44:07;6.80;99.90
22813;DHT22;11573;51.334;3.244;2024-01-06T03:46:35;6.80;99.90
22813;DHT22;11573;51.334;3.244;2024-01-06T03:49:02;6.70;99.90
22813;DHT22;11573;51.334;3.244;2024-01-06T03:51:29;6.70;99.90
22813;DHT22;11573;51.334;3.244;2024-01-06T03:53:56;6.70;99.90
22813;DHT22;11573;51.334;3.244;2024-01-06T03:56:23;6.70;99.90
22813;DHT22;11573;51.334;3.244;2024-01-06T03:58:50;6.70;99.90
22813;DHT22;11573;51.334;3.244;2024-01-06T04:01:17;6.70;99.90
22813;DHT22;11573;51.334;3.244;2024-01-06T04:03:44;6.80;99.90
22813;DHT22;11573;51.334;3.244;2024-01-06T04:06:12;6.80;99.90
22813;DHT22;11573;51.334;3.244;2024-01-06T04:08:40;6.80;99.90
22813;DHT22;11573;51.334;3.244;2024-01-06T04:11:10;6.70;99.90
22813;DHT22;11573;51.334;3.244;2024-01-06T04:13:37;6.70;99.90
22813;DHT22;11573;51.334;3.244;2024-01-06T04:16:04;6.80;99.90
22813;DHT22;11573;51.334;3.244;2024-01-06T04:18:32;6.80;99.90
22813;DHT22;11573;51.334;3.244;2024-01-06T04:20:59;6.70;99.90
22813;DHT22;11573;51.334;3.244;2024-01-06T04:23:26;6.70;99.90
22813;DHT22;11573;51.334;3.244;2024-01-06T04:25:53;6.70;99.90
22813;DHT22;11573;51.334;3.244;2024-01-06T04:28:20;6.80;99.90
22813;DHT22;11573;51.334;3.244;2024-01-06T04:30:47;6.80;99.90
22813;DHT22;11573;51.334;3.244;2024-01-06T04:33:14;6.80;99.90
22813;DHT22;11573;51.334;3.244;2024-01-06T04:35:42;6.80;99.90
22813;DHT22;11573;51.334;3.244;2024-01-06T04:38:09;6.80;99.90
22813;DHT22;11573;51.334;3.244;2024-01-06T04:40:36;6.80;99.90
22813;DHT22;11573;51.334;3.244;2024-01-06T04:43:03;6.80;99.90
22813;DHT22;11573;51.334;3.244;2024-01-06T04:45:30;6.70;99.90
22813;DHT22;11573;51.334;3.244;2024-01-06T04:47:57;6.70;99.90
22813;DHT22;11573;51.334;3.244;2024-01-06T04:50:25;6.70;99.90
22813;DHT22;11573;51.334;3.244;2024-01-06T04:52:52;6.70;99.90
22813;DHT22;11573;51.334;3.244;2024-01-06T04:55:19;6.80;99.90
22813;DHT22;11573;51.334;3.244;2024-01-06T04:57:46;6.80;99.90
22813;DHT22;11573;51.334;3.244;2024-01-06T05:00:13;6.80;99.90
22813;DHT22;11573;51.334;3.244;2024-01-06T05:02:41;6.80;99.90
22813;DHT22;11573;51.334;3.244;2024-01-06T05:05:08;6.80;99.90
22813;DHT22;11573;51.334;3.244;2024-01-06T05:07:35;6.80;99.90
22813;DHT22;11573;51.334;3.244;2024-01-06T05:10:02;6.80;99.90
22813;DHT22;11573;51.334;3.244;2024-01-06T05:12:29;6.80;99.90
22813;DHT22;11573;51.334;3.244;2024-01-06T05:14:56;6.80;99.90
22813;DHT22;11573;51.334;3.244;2024-01-06T05:17:23;6.80;99.90
22813;DHT22;11573;51.334;3.244;2024-01-06T05:19:50;6.80;99.90
22813;DHT22;11573;51.334;3.244;2024-01-06T05:22:18;6.80;99.90
22813;DHT22;11573;51.334;3.244;2024-01-06T05:24:45;6.80;99.90
22813;DHT22;11573;51.334;3.244;2024-01-06T05:27:13;6.80;99.90
22813;DHT22;11573;51.334;3.244;2024-01-06T05:29:40;6.80;99.90
22813;DHT22;11573;51.334;3.244;2024-01-06T05:32:07;6.80;99.90
22813;DHT22;11573;51.334;3.244;2024-01-06T05:34:34;6.70;99.90
22813;DHT22;11573;51.334;3.244;2024-01-06T05:37:01;6.70;99.90
22813;DHT22;11573;51.334;3.244;2024-01-06T05:39:28;6.70;99.90
22813;DHT22;11573;51.334;3.244;2024-01-06T05:41:55;6.70;99.90
22813;DHT22;11573;51.334;3.244;2024-01-06T05:44:22;6.80;99.90
22813;DHT22;11573;51.334;3.244;2024-01-06T05:46:50;6.80;99.90
22813;DHT22;11573;51.334;3.244;2024-01-06T05:49:18;6.80;99.90
22813;DHT22;11573;51.334;3.244;2024-01-06T05:51:45;6.80;99.90
22813;DHT22;11573;51.334;3.244;2024-01-06T05:54:12;6.70;99.90
22813;DHT22;11573;51.334;3.244;2024-01-06T05:56:40;6.80;99.90
22813;DHT22;11573;51.334;3.244;2024-01-06T05:59:07;6.80;99.90
22813;DHT22;11573;51.334;3.244;2024-01-06T06:01:34;6.80;99.90
22813;DHT22;11573;51.334;3.244;2024-01-06T06:04:01;6.80;99.90
22813;DHT22;11573;51.334;3.244;2024-01-06T06:06:28;6.80;99.90
22813;DHT22;11573;51.334;3.244;2024-01-06T06:08:55;6.80;99.90
22813;DHT22;11573;51.334;3.244;2024-01-06T06:11:22;6.80;99.90
22813;DHT22;11573;51.334;3.244;2024-01-06T06:13:49;6.80;99.90
22813;DHT22;11573;51.334;3.244;2024-01-06T06:16:16;6.70;99.90
22813;DHT22;11573;51.334;3.244;2024-01-06T06:18:44;6.70;99.90
22813;DHT22;11573;51.334;3.244;2024-01-06T06:21:11;6.70;99.90
22813;DHT22;11573;51.334;3.244;2024-01-06T06:23:38;6.60;99.90
22813;DHT22;11573;51.334;3.244;2024-01-06T06:26:06;6.60;99.90
22813;DHT22;11573;51.334;3.244;2024-01-06T06:28:34;6.50;99.90
22813;DHT22;11573;51.334;3.244;2024-01-06T06:31:02;6.50;99.90
22813;DHT22;11573;51.334;3.244;2024-01-06T06:33:29;6.50;99.90
22813;DHT22;11573;51.334;3.244;2024-01-06T06:35:57;6.50;99.90
22813;DHT22;11573;51.334;3.244;2024-01-06T06:38:25;6.50;99.90
22813;DHT22;11573;51.334;3.244;2024-01-06T06:40:53;6.50;99.90
22813;DHT22;11573;51.334;3.244;2024-01-06T06:43:20;6.60;99.90
22813;DHT22;11573;51.334;3.244;2024-01-06T06:45:47;6.60;99.90
22813;DHT22;11573;51.334;3.244;2024-01-06T06:48:14;6.60;99.90
22813;DHT22;11573;51.334;3.244;2024-01-06T06:50:41;6.70;99.90
22813;DHT22;11573;51.334;3.244;2024-01-06T06:53:09;6.60;99.90
22813;DHT22;11573;51.334;3.244;2024-01-06T06:55:36;6.70;99.90
22813;DHT22;11573;51.334;3.244;2024-01-06T06:58:04;6.60;99.90
22813;DHT22;11573;51.334;3.244;2024-01-06T07:00:35;6.60;99.90
22813;DHT22;11573;51.334;3.244;2024-01-06T07:03:02;6.70;99.90
22813;DHT22;11573;51.334;3.244;2024-01-06T07:05:29;6.60;99.90
22813;DHT22;11573;51.334;3.244;2024-01-06T07:07:57;6.60;99.90
22813;DHT22;11573;51.334;3.244;2024-01-06T07:10:26;6.60;99.90
22813;DHT22;11573;51.334;3.244;2024-01-06T07:12:53;6.60;99.90
22813;DHT22;11573;51.334;3.244;2024-01-06T07:15:20;6.70;99.90
22813;DHT22;11573;51.334;3.244;2024-01-06T07:17:48;6.60;99.90
22813;DHT22;11573;51.334;3.244;2024-01-06T07:20:16;6.70;99.90
22813;DHT22;11573;51.334;3.244;2024-01-06T07:22:43;6.70;99.90
22813;DHT22;11573;51.334;3.244;2024-01-06T07:25:10;6.70;99.90
22813;DHT22;11573;51.334;3.244;2024-01-06T07:27:37;6.70;99.90
22813;DHT22;11573;51.334;3.244;2024-01-06T07:30:05;6.60;99.90
22813;DHT22;11573;51.334;3.244;2024-01-06T07:32:34;6.60;99.90
22813;DHT22;11573;51.334;3.244;2024-01-06T07:35:01;6.50;99.90
22813;DHT22;11573;51.334;3.244;2024-01-06T07:37:33;6.50;99.90
22813;DHT22;11573;51.334;3.244;2024-01-06T07:40:01;6.50;99.90
22813;DHT22;11573;51.334;3.244;2024-01-06T07:42:28;6.40;99.90
22813;DHT22;11573;51.334;3.244;2024-01-06T07:44:55;6.40;99.90
22813;DHT22;11573;51.334;3.244;2024-01-06T07:47:22;6.40;99.90
22813;DHT22;11573;51.334;3.244;2024-01-06T07:49:49;6.40;99.90
22813;DHT22;11573;51.334;3.244;2024-01-06T07:52:17;6.50;99.90
22813;DHT22;11573;51.334;3.244;2024-01-06T07:54:44;6.50;99.90
22813;DHT22;11573;51.334;3.244;2024-01-06T07:57:11;6.60;99.90
22813;DHT22;11573;51.334;3.244;2024-01-06T07:59:38;6.50;99.90
22813;DHT22;11573;51.334;3.244;2024-01-06T08:02:05;6.40;99.90
22813;DHT22;11573;51.334;3.244;2024-01-06T08:04:32;6.50;99.90
22813;DHT22;11573;51.334;3.244;2024-01-06T08:07:00;6.50;99.90
22813;DHT22;11573;51.334;3.244;2024-01-06T08:09:27;6.50;99.90
22813;DHT22;11573;51.334;3.244;2024-01-06T08:11:54;6.50;99.90
22813;DHT22;11573;51.334;3.244;2024-01-06T08:14:21;6.50;99.90
22813;DHT22;11573;51.334;3.244;2024-01-06T08:16:48;6.40;99.90
22813;DHT22;11573;51.334;3.244;2024-01-06T08:19:15;6.40;99.90
22813;DHT22;11573;51.334;3.244;2024-01-06T08:21:43;6.40;99.90
22813;DHT22;11573;51.334;3.244;2024-01-06T08:24:10;6.40;99.90
22813;DHT22;11573;51.334;3.244;2024-01-06T08:26:37;6.40;99.90
22813;DHT22;11573;51.334;3.244;2024-01-06T08:29:04;6.40;99.90
22813;DHT22;11573;51.334;3.244;2024-01-06T08:31:31;6.30;99.90
22813;DHT22;11573;51.334;3.244;2024-01-06T08:34:00;6.20;99.90
22813;DHT22;11573;51.334;3.244;2024-01-06T08:36:27;6.20;99.90
22813;DHT22;11573;51.334;3.244;2024-01-06T08:38:54;6.20;99.90
22813;DHT22;11573;51.334;3.244;2024-01-06T08:41:21;6.20;99.90
22813;DHT22;11573;51.334;3.244;2024-01-06T08:43:48;6.10;99.90
22813;DHT22;11573;51.334;3.244;2024-01-06T08:46:15;6.00;99.90
22813;DHT22;11573;51.334;3.244;2024-01-06T08:48:43;6.10;99.90
22813;DHT22;11573;51.334;3.244;2024-01-06T08:51:10;6.10;99.90
22813;DHT22;11573;51.334;3.244;2024-01-06T08:53:38;6.10;99.90
22813;DHT22;11573;51.334;3.244;2024-01-06T08:56:05;6.10;99.90
22813;DHT22;11573;51.334;3.244;2024-01-06T08:58:33;6.00;99.90
22813;DHT22;11573;51.334;3.244;2024-01-06T09:01:00;6.10;99.90
22813;DHT22;11573;51.334;3.244;2024-01-06T09:03:27;6.10;99.90
22813;DHT22;11573;51.334;3.244;2024-01-06T09:05:55;6.10;99.90
22813;DHT22;11573;51.334;3.244;2024-01-06T09:08:22;6.00;99.90
22813;DHT22;11573;51.334;3.244;2024-01-06T09:10:50;6.10;99.90
22813;DHT22;11573;51.334;3.244;2024-01-06T09:13:24;6.10;99.90
22813;DHT22;11573;51.334;3.244;2024-01-06T09:15:51;6.20;99.90
22813;DHT22;11573;51.334;3.244;2024-01-06T09:18:19;6.20;99.90
22813;DHT22;11573;51.334;3.244;2024-01-06T09:20:47;6.20;99.90
22813;DHT22;11573;51.334;3.244;2024-01-06T09:23:16;6.20;99.90
22813;DHT22;11573;51.334;3.244;2024-01-06T09:25:44;6.20;99.90
22813;DHT22;11573;51.334;3.244;2024-01-06T09:28:12;6.20;99.90
22813;DHT22;11573;51.334;3.244;2024-01-06T09:30:39;6.30;99.90
22813;DHT22;11573;51.334;3.244;2024-01-06T09:33:06;6.30;99.90
22813;DHT22;11573;51.334;3.244;2024-01-06T09:35:34;6.30;99.90
22813;DHT22;11573;51.334;3.244;2024-01-06T09:38:01;6.20;99.90
22813;DHT22;11573;51.334;3.244;2024-01-06T09:40:31;6.20;99.90
22813;DHT22;11573;51.334;3.244;2024-01-06T09:42:58;6.20;99.90
22813;DHT22;11573;51.334;3.244;2024-01-06T09:45:25;6.30;99.90
22813;DHT22;11573;51.334;3.244;2024-01-06T09:47:53;6.30;99.90
22813;DHT22;11573;51.334;3.244;2024-01-06T09:50:22;6.30;99.90
22813;DHT22;11573;51.334;3.244;2024-01-06T09:52:49;6.30;99.90
22813;DHT22;11573;51.334;3.244;2024-01-06T09:55:26;6.40;99.90
22813;DHT22;11573;51.334;3.244;2024-01-06T09:57:54;6.40;99.90
22813;DHT22;11573;51.334;3.244;2024-01-06T10:00:21;6.50;99.90
22813;DHT22;11573;51.334;3.244;2024-01-06T10:02:49;6.50;99.90
22813;DHT22;11573;51.334;3.244;2024-01-06T10:05:18;6.50;99.90
22813;DHT22;11573;51.334;3.244;2024-01-06T10:07:46;6.50;99.90
22813;DHT22;11573;51.334;3.244;2024-01-06T10:10:14;6.50;99.90
22813;DHT22;11573;51.334;3.244;2024-01-06T10:12:42;6.70;99.90
22813;DHT22;11573;51.334;3.244;2024-01-06T10:15:10;6.70;99.90
22813;DHT22;11573;51.334;3.244;2024-01-06T10:17:39;6.70;99.90
22813;DHT22;11573;51.334;3.244;2024-01-06T10:20:08;6.60;99.90
22813;DHT22;11573;51.334;3.244;2024-01-06T10:22:37;6.70;99.90
22813;DHT22;11573;51.334;3.244;2024-01-06T10:25:09;6.70;99.90
22813;DHT22;11573;51.334;3.244;2024-01-06T10:27:39;6.80;99.90
22813;DHT22;11573;51.334;3.244;2024-01-06T10:30:07;6.80;99.90
22813;DHT22;11573;51.334;3.244;2024-01-06T10:32:35;6.80;99.90
22813;DHT22;11573;51.334;3.244;2024-01-06T10:35:04;6.70;99.90
22813;DHT22;11573;51.334;3.244;2024-01-06T10:37:33;6.70;99.90
22813;DHT22;11573;51.334;3.244;2024-01-06T10:40:11;6.70;99.90
22813;DHT22;11573;51.334;3.244;2024-01-06T10:42:40;6.80;99.90
22813;DHT22;11573;51.334;3.244;2024-01-06T10:45:11;6.90;99.90
22813;DHT22;11573;51.334;3.244;2024-01-06T10:47:43;6.90;99.90
22813;DHT22;11573;51.334;3.244;2024-01-06T10:50:10;6.80;99.90
22813;DHT22;11573;51.334;3.244;2024-01-06T10:52:38;6.80;99.90
22813;DHT22;11573;51.334;3.244;2024-01-06T10:55:06;6.80;99.90
22813;DHT22;11573;51.334;3.244;2024-01-06T10:57:33;6.80;99.90
22813;DHT22;11573;51.334;3.244;2024-01-06T11:00:01;6.90;99.90
22813;DHT22;11573;51.334;3.244;2024-01-06T11:02:29;6.90;99.90
22813;DHT22;11573;51.334;3.244;2024-01-06T11:04:57;6.90;99.90
22813;DHT22;11573;51.334;3.244;2024-01-06T11:07:25;6.90;99.90
22813;DHT22;11573;51.334;3.244;2024-01-06T11:09:57;7.00;99.90
22813;DHT22;11573;51.334;3.244;2024-01-06T11:12:25;7.10;99.90
22813;DHT22;11573;51.334;3.244;2024-01-06T11:14:53;7.20;99.90
22813;DHT22;11573;51.334;3.244;2024-01-06T11:17:49;7.30;99.90
22813;DHT22;11573;51.334;3.244;2024-01-06T11:20:26;7.30;99.90
22813;DHT22;11573;51.334;3.244;2024-01-06T11:22:53;7.10;99.90
22813;DHT22;11573;51.334;3.244;2024-01-06T11:25:21;7.00;99.90
22813;DHT22;11573;51.334;3.244;2024-01-06T11:27:50;6.90;99.90
22813;DHT22;11573;51.334;3.244;2024-01-06T11:30:25;6.90;99.90
22813;DHT22;11573;51.334;3.244;2024-01-06T11:32:53;7.00;99.90
22813;DHT22;11573;51.334;3.244;2024-01-06T11:35:22;7.00;99.90
22813;DHT22;11573;51.334;3.244;2024-01-06T11:37:53;7.00;99.90
22813;DHT22;11573;51.334;3.244;2024-01-06T11:43:11;7.10;99.90
22813;DHT22;11573;51.334;3.244;2024-01-06T11:45:41;7.20;99.90
22813;DHT22;11573;51.334;3.244;2024-01-06T11:48:10;7.40;99.90
22813;DHT22;11573;51.334;3.244;2024-01-06T11:50:40;7.20;99.90
22813;DHT22;11573;51.334;3.244;2024-01-06T11:53:08;7.10;99.90
22813;DHT22;11573;51.334;3.244;2024-01-06T11:55:41;6.90;99.90
22813;DHT22;11573;51.334;3.244;2024-01-06T11:58:10;6.80;99.90
22813;DHT22;11573;51.334;3.244;2024-01-06T12:00:37;6.70;99.90
22813;DHT22;11573;51.334;3.244;2024-01-06T12:03:07;6.70;99.90
22813;DHT22;11573;51.334;3.244;2024-01-06T12:05:34;6.70;99.90
22813;DHT22;11573;51.334;3.244;2024-01-06T12:08:03;6.70;99.90
22813;DHT22;11573;51.334;3.244;2024-01-06T12:10:36;6.60;99.90
22813;DHT22;11573;51.334;3.244;2024-01-06T12:13:05;6.50;99.90
22813;DHT22;11573;51.334;3.244;2024-01-06T12:15:36;6.40;99.90
22813;DHT22;11573;51.334;3.244;2024-01-06T12:18:07;6.40;99.90
22813;DHT22;11573;51.334;3.244;2024-01-06T12:20:34;6.40;99.90
22813;DHT22;11573;51.334;3.244;2024-01-06T12:23:01;6.50;99.90
22813;DHT22;11573;51.334;3.244;2024-01-06T12:25:34;6.50;99.90
22813;DHT22;11573;51.334;3.244;2024-01-06T12:28:07;6.50;99.90
22813;DHT22;11573;51.334;3.244;2024-01-06T12:30:34;6.60;99.90
22813;DHT22;11573;51.334;3.244;2024-01-06T12:33:03;6.70;99.90
22813;DHT22;11573;51.334;3.244;2024-01-06T12:35:30;6.70;99.90
22813;DHT22;11573;51.334;3.244;2024-01-06T12:37:57;6.70;99.90
22813;DHT22;11573;51.334;3.244;2024-01-06T12:40:25;6.70;99.90
22813;DHT22;11573;51.334;3.244;2024-01-06T12:42:53;6.70;99.90
22813;DHT22;11573;51.334;3.244;2024-01-06T12:45:20;6.70;99.90
22813;DHT22;11573;51.334;3.244;2024-01-06T12:47:47;6.70;99.90
22813;DHT22;11573;51.334;3.244;2024-01-06T12:50:14;6.70;99.90
22813;DHT22;11573;51.334;3.244;2024-01-06T12:52:42;6.60;99.90
22813;DHT22;11573;51.334;3.244;2024-01-06T12:55:10;6.50;99.90
22813;DHT22;11573;51.334;3.244;2024-01-06T12:57:37;6.40;99.90
22813;DHT22;11573;51.334;3.244;2024-01-06T13:00:05;6.40;99.90
22813;DHT22;11573;51.334;3.244;2024-01-06T13:02:37;6.50;99.90
22813;DHT22;11573;51.334;3.244;2024-01-06T13:05:04;6.50;99.90
22813;DHT22;11573;51.334;3.244;2024-01-06T13:07:32;6.50;99.90
22813;DHT22;11573;51.334;3.244;2024-01-06T13:09:59;6.60;99.90
22813;DHT22;11573;51.334;3.244;2024-01-06T13:12:27;6.50;99.90
22813;DHT22;11573;51.334;3.244;2024-01-06T13:14:56;6.50;99.90
22813;DHT22;11573;51.334;3.244;2024-01-06T13:17:23;6.60;99.90
22813;DHT22;11573;51.334;3.244;2024-01-06T13:19:50;6.50;99.90
22813;DHT22;11573;51.334;3.244;2024-01-06T13:22:17;6.50;99.90
22813;DHT22;11573;51.334;3.244;2024-01-06T13:24:47;6.60;99.90
22813;DHT22;11573;51.334;3.244;2024-01-06T13:27:17;6.60;99.90
22813;DHT22;11573;51.334;3.244;2024-01-06T13:29:44;6.60;99.90
22813;DHT22;11573;51.334;3.244;2024-01-06T13:32:11;6.60;99.90
22813;DHT22;11573;51.334;3.244;2024-01-06T13:34:40;6.70;99.90
22813;DHT22;11573;51.334;3.244;2024-01-06T13:37:07;6.60;99.90
22813;DHT22;11573;51.334;3.244;2024-01-06T13:39:35;6.70;99.90
22813;DHT22;11573;51.334;3.244;2024-01-06T13:42:02;6.70;99.90
22813;DHT22;11573;51.334;3.244;2024-01-06T13:44:33;6.70;99.90
22813;DHT22;11573;51.334;3.244;2024-01-06T13:47:00;6.70;99.90
22813;DHT22;11573;51.334;3.244;2024-01-06T13:49:27;6.70;99.90
22813;DHT22;11573;51.334;3.244;2024-01-06T13:51:55;6.70;99.90
22813;DHT22;11573;51.334;3.244;2024-01-06T13:54:22;6.70;99.90
22813;DHT22;11573;51.334;3.244;2024-01-06T13:56:49;6.60;99.90
22813;DHT22;11573;51.334;3.244;2024-01-06T13:59:16;6.50;99.90
22813;DHT22;11573;51.334;3.244;2024-01-06T14:01:43;6.30;99.90
22813;DHT22;11573;51.334;3.244;2024-01-06T14:04:10;6.10;99.90
22813;DHT22;11573;51.334;3.244;2024-01-06T14:06:38;6.00;99.90
22813;DHT22;11573;51.334;3.244;2024-01-06T14:09:06;5.90;99.90
22813;DHT22;11573;51.334;3.244;2024-01-06T14:11:33;5.90;99.90
22813;DHT22;11573;51.334;3.244;2024-01-06T14:14:01;5.80;99.90
22813;DHT22;11573;51.334;3.244;2024-01-06T14:16:28;5.90;99.90
22813;DHT22;11573;51.334;3.244;2024-01-06T14:18:55;5.90;99.90
22813;DHT22;11573;51.334;3.244;2024-01-06T14:21:22;5.90;99.90
22813;DHT22;11573;51.334;3.244;2024-01-06T14:23:50;5.90;99.90
22813;DHT22;11573;51.334;3.244;2024-01-06T14:26:17;5.90;99.90
22813;DHT22;11573;51.334;3.244;2024-01-06T14:28:47;5.90;99.90
22813;DHT22;11573;51.334;3.244;2024-01-06T14:31:15;6.00;99.90
22813;DHT22;11573;51.334;3.244;2024-01-06T14:33:42;5.90;99.90
22813;DHT22;11573;51.334;3.244;2024-01-06T14:36:09;5.90;99.90
22813;DHT22;11573;51.334;3.244;2024-01-06T14:38:36;5.80;99.90
22813;DHT22;11573;51.334;3.244;2024-01-06T14:41:03;5.80;99.90
22813;DHT22;11573;51.334;3.244;2024-01-06T14:43:31;5.80;99.90
22813;DHT22;11573;51.334;3.244;2024-01-06T14:45:58;5.90;99.90
22813;DHT22;11573;51.334;3.244;2024-01-06T14:48:25;5.90;99.90
22813;DHT22;11573;51.334;3.244;2024-01-06T14:50:52;5.90;99.90
22813;DHT22;11573;51.334;3.244;2024-01-06T14:53:19;5.90;99.90
22813;DHT22;11573;51.334;3.244;2024-01-06T14:55:46;5.90;99.90
22813;DHT22;11573;51.334;3.244;2024-01-06T14:58:13;5.90;99.90
22813;DHT22;11573;51.334;3.244;2024-01-06T15:00:40;5.90;99.90
22813;DHT22;11573;51.334;3.244;2024-01-06T15:03:09;6.00;99.90
22813;DHT22;11573;51.334;3.244;2024-01-06T15:05:36;6.00;99.90
22813;DHT22;11573;51.334;3.244;2024-01-06T15:08:03;6.00;99.90
22813;DHT22;11573;51.334;3.244;2024-01-06T15:10:30;6.00;99.90
22813;DHT22;11573;51.334;3.244;2024-01-06T15:12:57;6.00;99.90
22813;DHT22;11573;51.334;3.244;2024-01-06T15:15:24;5.90;99.90
22813;DHT22;11573;51.334;3.244;2024-01-06T15:17:51;5.90;99.90
22813;DHT22;11573;51.334;3.244;2024-01-06T15:20:18;6.00;99.90
22813;DHT22;11573;51.334;3.244;2024-01-06T15:22:46;6.00;99.90
22813;DHT22;11573;51.334;3.244;2024-01-06T15:25:13;6.10;99.90
22813;DHT22;11573;51.334;3.244;2024-01-06T15:27:40;6.10;99.90
22813;DHT22;11573;51.334;3.244;2024-01-06T15:30:07;6.20;99.90
22813;DHT22;11573;51.334;3.244;2024-01-06T15:32:36;6.10;99.90
22813;DHT22;11573;51.334;3.244;2024-01-06T15:35:04;6.10;99.90
22813;DHT22;11573;51.334;3.244;2024-01-06T15:37:33;6.10;99.90
22813;DHT22;11573;51.334;3.244;2024-01-06T15:40:00;6.00;99.90
22813;DHT22;11573;51.334;3.244;2024-01-06T15:42:27;5.80;99.90
22813;DHT22;11573;51.334;3.244;2024-01-06T15:44:55;5.70;99.90
22813;DHT22;11573;51.334;3.244;2024-01-06T15:47:22;5.60;99.90
22813;DHT22;11573;51.334;3.244;2024-01-06T15:49:49;5.50;99.90